createdAt,value
2023-01-03T00:01:29.184Z,2.30
2023-01-03T00:03:02.326Z,2.33
2023-01-03T00:04:35.614Z,2.32
2023-01-03T00:06:15.697Z,2.29
2023-01-03T00:07:51.553Z,2.33
2023-01-03T00:09:25.734Z,2.29
2023-01-03T00:10:57.998Z,2.25
2023-01-03T00:12:32.351Z,2.23
2023-01-03T00:14:04.738Z,2.18
2023-01-03T00:15:38.699Z,2.11
2023-01-03T00:17:13.668Z,2.05
2023-01-03T00:18:47.519Z,2.01
2023-01-03T00:20:20.984Z,2.00
2023-01-03T00:21:53.568Z,1.93
2023-01-03T00:23:28.204Z,1.95
2023-01-03T00:25:01.434Z,1.94
2023-01-03T00:26:34.438Z,1.96
2023-01-03T00:28:07.771Z,1.98
2023-01-03T00:29:40.987Z,1.99
2023-01-03T00:31:14.409Z,1.96
2023-01-03T00:32:47.971Z,1.94
2023-01-03T00:34:20.168Z,1.95
2023-01-03T00:35:53.350Z,1.94
2023-01-03T00:37:26.515Z,1.95
2023-01-03T00:39:00.651Z,1.97
2023-01-03T00:40:33.937Z,1.97
2023-01-03T00:42:08.326Z,1.96
2023-01-03T00:43:41.694Z,1.98
2023-01-03T00:45:19.225Z,1.97
2023-01-03T00:46:53.047Z,1.92
2023-01-03T00:48:25.553Z,1.93
2023-01-03T00:49:58.669Z,1.84
2023-01-03T00:51:34.676Z,1.79
2023-01-03T00:53:07.798Z,1.77
2023-01-03T00:54:42.451Z,1.73
2023-01-03T00:56:18.179Z,1.69
2023-01-03T00:57:51.568Z,1.69
2023-01-03T00:59:24.719Z,1.75
2023-01-03T01:00:56.933Z,1.76
2023-01-03T01:02:30.352Z,1.79
2023-01-03T01:04:07.058Z,1.73
2023-01-03T01:05:40.244Z,1.74
2023-01-03T01:07:13.588Z,1.70
2023-01-03T01:08:47.555Z,1.62
2023-01-03T01:10:22.530Z,1.67
2023-01-03T01:11:56.214Z,1.75
2023-01-03T01:13:30.110Z,1.76
2023-01-03T01:15:03.378Z,1.73
2023-01-03T01:16:35.896Z,1.69
2023-01-03T01:18:09.195Z,1.65
2023-01-03T01:19:44.981Z,1.63
2023-01-03T01:21:24.200Z,1.62
2023-01-03T01:22:57.702Z,1.60
2023-01-03T01:24:31.200Z,1.58
2023-01-03T01:26:10.080Z,1.60
2023-01-03T01:27:43.296Z,1.58
2023-01-03T01:29:16.744Z,1.56
2023-01-03T01:30:49.898Z,1.50
2023-01-03T01:32:23.116Z,1.48
2023-01-03T01:33:57.840Z,1.45
2023-01-03T01:35:31.330Z,1.52
2023-01-03T01:37:04.931Z,1.55
2023-01-03T01:38:37.367Z,1.56
2023-01-03T01:40:11.816Z,1.55
2023-01-03T01:42:05.739Z,1.55
2023-01-03T01:44:14.397Z,1.51
2023-01-03T01:45:48.423Z,1.55
2023-01-03T01:47:28.021Z,1.55
2023-01-03T01:49:04.194Z,1.56
2023-01-03T01:50:43.319Z,1.54
2023-01-03T01:52:18.344Z,1.55
2023-01-03T01:53:55.584Z,1.57
2023-01-03T01:55:32.913Z,1.54
2023-01-03T01:57:13.690Z,1.47
2023-01-03T01:58:50.157Z,1.40
2023-01-03T02:00:22.674Z,1.34
2023-01-03T02:01:56.411Z,1.38
2023-01-03T02:03:31.816Z,1.31
2023-01-03T02:05:07.528Z,1.31
2023-01-03T02:06:41.807Z,1.36
2023-01-03T02:08:15.098Z,1.39
2023-01-03T02:09:49.894Z,1.38
2023-01-03T02:11:34.867Z,1.41
2023-01-03T02:13:13.972Z,1.43
2023-01-03T02:15:05.528Z,1.45
2023-01-03T02:16:52.971Z,1.45
2023-01-03T02:18:42.946Z,1.46
2023-01-03T02:20:26.986Z,1.48
2023-01-03T02:22:28.649Z,1.42
2023-01-03T02:24:31.811Z,1.43
2023-01-03T02:26:43.164Z,1.42
2023-01-03T02:28:57.696Z,1.35
2023-01-03T02:30:38.062Z,1.28
2023-01-03T02:32:14.790Z,1.26
2023-01-03T02:33:55.558Z,1.26
2023-01-03T02:35:36.777Z,1.23
2023-01-03T02:37:18.899Z,1.18
2023-01-03T02:38:58.253Z,1.19
2023-01-03T02:40:38.324Z,1.17
2023-01-03T02:42:34.552Z,1.16
2023-01-03T02:44:17.104Z,1.14
2023-01-03T02:46:07.719Z,1.12
2023-01-03T02:47:47.925Z,1.13
2023-01-03T02:49:27.430Z,1.14
2023-01-03T02:51:03.668Z,1.11
2023-01-03T02:52:38.305Z,1.15
2023-01-03T02:54:16.770Z,1.12
2023-01-03T02:55:53.684Z,1.07
2023-01-03T02:57:31.423Z,1.03
2023-01-03T02:59:09.970Z,1.03
2023-01-03T03:00:48.933Z,1.03
2023-01-03T03:02:26.264Z,1.04
2023-01-03T03:04:02.535Z,1.07
2023-01-03T03:05:40.582Z,1.08
2023-01-03T03:07:19.853Z,1.12
2023-01-03T03:08:53.543Z,1.11
2023-01-03T03:10:45.447Z,1.12
2023-01-03T03:12:36.601Z,1.12
2023-01-03T03:14:15.408Z,1.12
2023-01-03T03:15:55.460Z,1.11
2023-01-03T03:17:32.869Z,1.11
2023-01-03T03:19:40.197Z,1.11
2023-01-03T03:21:33.348Z,1.08
2023-01-03T03:23:27.807Z,1.12
2023-01-03T03:25:05.731Z,1.06
2023-01-03T03:26:44.033Z,1.04
2023-01-03T03:28:37.845Z,1.00
2023-01-03T03:30:15.587Z,0.95
2023-01-03T03:31:51.305Z,0.92
2023-01-03T03:33:29.045Z,0.91
2023-01-03T03:35:05.800Z,0.85
2023-01-03T03:36:45.422Z,0.90
2023-01-03T03:38:23.241Z,0.84
2023-01-03T03:40:14.531Z,0.87
2023-01-03T03:42:07.750Z,0.75
2023-01-03T03:44:05.013Z,0.60
2023-01-03T03:45:43.762Z,0.53
2023-01-03T03:47:25.508Z,0.54
2023-01-03T03:49:24.555Z,0.56
2023-01-03T03:51:03.301Z,0.64
2023-01-03T03:52:37.956Z,0.68
2023-01-03T03:54:14.549Z,0.71
2023-01-03T03:55:53.861Z,0.70
2023-01-03T03:57:30.121Z,0.66
2023-01-03T03:59:07.886Z,0.64
2023-01-03T04:00:44.019Z,0.65
2023-01-03T04:02:19.145Z,0.65
2023-01-03T04:03:56.047Z,0.70
2023-01-03T04:05:35.752Z,0.64
2023-01-03T04:07:09.699Z,0.65
2023-01-03T04:08:43.828Z,0.71
2023-01-03T04:10:20.618Z,0.72
2023-01-03T04:11:53.823Z,0.74
2023-01-03T04:13:26.170Z,0.75
2023-01-03T04:14:59.403Z,0.74
2023-01-03T04:16:31.840Z,0.74
2023-01-03T04:18:05.419Z,0.73
2023-01-03T04:19:37.767Z,0.72
2023-01-03T04:21:17.174Z,0.72
2023-01-03T04:22:54.241Z,0.73
2023-01-03T04:24:26.892Z,0.79
2023-01-03T04:26:00.478Z,0.80
2023-01-03T04:27:33.995Z,0.76
2023-01-03T04:29:07.406Z,0.81
2023-01-03T04:30:40.741Z,0.77
2023-01-03T04:32:34.213Z,0.62
2023-01-03T04:34:07.468Z,0.49
2023-01-03T04:35:41.003Z,0.35
2023-01-03T04:37:16.221Z,0.25
2023-01-03T04:38:49.718Z,0.17
2023-01-03T04:40:21.907Z,0.10
2023-01-03T04:41:55.270Z,0.07
2023-01-03T04:43:46.204Z,0.12
2023-01-03T04:45:18.474Z,0.14
2023-01-03T04:46:53.229Z,0.19
2023-01-03T04:48:25.855Z,0.20
2023-01-03T04:49:59.171Z,0.24
2023-01-03T04:51:32.371Z,0.33
2023-01-03T04:53:07.685Z,0.33
2023-01-03T04:54:41.157Z,0.37
2023-01-03T04:56:14.520Z,0.37
2023-01-03T04:57:47.636Z,0.34
2023-01-03T04:59:20.731Z,0.33
2023-01-03T05:00:59.349Z,0.33
2023-01-03T05:02:32.719Z,0.27
2023-01-03T05:04:06.193Z,0.29
2023-01-03T05:05:38.794Z,0.28
2023-01-03T05:07:12.291Z,0.25
2023-01-03T05:08:47.881Z,0.28
2023-01-03T05:10:20.949Z,0.29
2023-01-03T05:11:54.130Z,0.23
2023-01-03T05:13:27.374Z,0.29
2023-01-03T05:15:00.576Z,0.27
2023-01-03T05:16:33.760Z,0.27
2023-01-03T05:18:06.269Z,0.24
2023-01-03T05:20:00.358Z,0.22
2023-01-03T05:21:47.488Z,0.22
2023-01-03T05:23:38.205Z,0.26
2023-01-03T05:25:30.471Z,0.28
2023-01-03T05:27:06.737Z,0.30
2023-01-03T05:28:40.438Z,0.34
2023-01-03T05:30:14.240Z,0.30
2023-01-03T05:31:48.015Z,0.31
2023-01-03T05:33:21.349Z,0.21
2023-01-03T05:34:54.647Z,0.20
2023-01-03T05:36:28.277Z,0.16
2023-01-03T05:38:01.409Z,0.17
2023-01-03T05:39:34.657Z,0.16
2023-01-03T05:41:09.683Z,0.13
2023-01-03T05:42:41.878Z,0.10
2023-01-03T05:44:15.402Z,0.12
2023-01-03T05:45:51.829Z,0.11
2023-01-03T05:47:24.326Z,0.16
2023-01-03T05:48:57.481Z,0.11
2023-01-03T05:50:31.611Z,0.24
2023-01-03T05:52:05.243Z,0.24
2023-01-03T05:53:38.563Z,0.22
2023-01-03T05:55:12.588Z,0.23
2023-01-03T05:56:47.628Z,0.25
2023-01-03T05:58:21.018Z,0.25
2023-01-03T05:59:54.120Z,0.26
2023-01-03T06:01:28.624Z,0.29
2023-01-03T06:03:02.206Z,0.29
2023-01-03T06:04:35.517Z,0.30
2023-01-03T06:06:09.845Z,0.35
2023-01-03T06:07:42.913Z,0.41
2023-01-03T06:09:16.192Z,0.44
2023-01-03T06:10:49.677Z,0.42
2023-01-03T06:12:24.400Z,0.45
2023-01-03T06:13:57.533Z,0.49
2023-01-03T06:15:31.313Z,0.47
2023-01-03T06:17:22.104Z,0.50
2023-01-03T06:18:59.069Z,0.53
2023-01-03T06:20:32.408Z,0.40
2023-01-03T06:22:10.538Z,0.63
2023-01-03T06:23:47.722Z,0.71
2023-01-03T06:25:19.830Z,0.74
2023-01-03T06:26:52.992Z,0.80
2023-01-03T14:32:50.861Z,16.80
2023-01-03T14:34:31.250Z,16.72
2023-01-03T14:36:06.530Z,16.63
2023-01-03T14:37:47.927Z,16.55
2023-01-03T14:39:23.923Z,16.53
2023-01-03T14:40:58.204Z,16.45
2023-01-03T14:42:31.967Z,16.40
2023-01-03T14:44:08.150Z,16.41
2023-01-03T14:45:42.822Z,16.42
2023-01-03T14:47:18.717Z,16.35
2023-01-03T14:48:59.460Z,16.28
2023-01-03T14:50:36.018Z,16.23
2023-01-03T14:52:15.993Z,16.16
2023-01-03T14:53:49.570Z,16.13
2023-01-03T14:55:27.338Z,16.08
2023-01-03T14:57:01.868Z,15.97
2023-01-03T14:58:39.996Z,15.93
2023-01-03T15:02:42.172Z,15.84
2023-01-03T15:04:19.422Z,15.82
2023-01-03T15:05:55.645Z,15.79
2023-01-03T15:07:33.265Z,15.74
2023-01-03T15:09:22.716Z,15.68
2023-01-03T15:11:00.168Z,15.60
2023-01-03T15:12:36.219Z,15.51
2023-01-03T15:14:14.433Z,15.41
2023-01-03T15:15:54.654Z,15.30
2023-01-03T15:17:28.997Z,15.22
2023-01-03T15:19:08.797Z,15.15
2023-01-03T15:20:46.301Z,15.08
2023-01-03T15:22:23.057Z,15.05
2023-01-03T15:23:57.682Z,15.05
2023-01-03T15:25:35.871Z,14.98
2023-01-03T15:27:48.870Z,14.88
2023-01-03T15:29:23.961Z,14.77
2023-01-03T15:31:01.706Z,14.75
2023-01-03T15:32:46.752Z,14.67
2023-01-03T15:34:22.968Z,14.61
2023-01-03T15:35:58.623Z,14.57
2023-01-03T15:37:31.889Z,14.54
2023-01-03T15:39:09.927Z,14.47
2023-01-03T15:40:44.734Z,14.43
2023-01-03T15:42:48.999Z,14.38
2023-01-03T15:44:29.296Z,14.27
2023-01-03T15:46:05.597Z,14.24
2023-01-03T15:47:39.116Z,14.20
2023-01-03T15:49:16.170Z,14.18
2023-01-03T15:50:51.786Z,14.15
2023-01-03T15:52:27.672Z,14.05
2023-01-03T15:54:00.859Z,14.00
2023-01-03T15:55:33.165Z,13.97
2023-01-03T15:57:16.003Z,13.93
2023-01-03T15:58:51.454Z,13.85
2023-01-03T16:00:26.394Z,13.82
2023-01-03T16:01:59.824Z,13.77
2023-01-03T16:03:34.708Z,13.75
2023-01-03T16:05:12.961Z,13.68
2023-01-03T16:06:52.314Z,13.60
2023-01-03T16:08:30.626Z,13.51
2023-01-03T16:10:03.801Z,13.44
2023-01-03T16:11:38.150Z,13.39
2023-01-03T16:13:14.981Z,13.27
2023-01-03T16:14:50.789Z,13.19
2023-01-03T16:16:28.149Z,13.11
2023-01-03T16:18:01.999Z,12.99
2023-01-03T16:19:35.661Z,12.98
2023-01-03T16:21:09.338Z,12.92
2023-01-03T16:22:55.473Z,12.86
2023-01-03T16:24:35.273Z,12.79
2023-01-03T16:26:12.054Z,12.73
2023-01-03T16:27:45.720Z,12.65
2023-01-03T16:29:19.037Z,12.57
2023-01-03T16:31:00.306Z,12.52
2023-01-03T16:32:34.676Z,12.43
2023-01-03T16:34:15.871Z,12.36
2023-01-03T16:35:49.386Z,12.29
2023-01-03T16:37:23.200Z,12.22
2023-01-03T16:38:56.728Z,12.09
2023-01-03T16:40:34.834Z,11.99
2023-01-03T16:42:13.964Z,11.92
2023-01-03T16:43:48.161Z,11.83
2023-01-03T16:45:21.926Z,11.75
2023-01-03T16:46:55.322Z,11.68
2023-01-03T16:48:38.133Z,11.64
2023-01-03T16:50:17.680Z,11.60
2023-01-03T16:51:57.302Z,11.55
2023-01-03T16:53:36.820Z,11.46
2023-01-03T16:55:17.315Z,11.34
2023-01-03T16:56:52.430Z,11.25
2023-01-03T16:58:26.111Z,11.21
2023-01-03T16:59:59.437Z,11.14
2023-01-03T17:01:33.391Z,11.09
2023-01-03T17:03:07.381Z,11.05
2023-01-03T17:04:40.703Z,11.01
2023-01-03T17:06:35.048Z,10.93
2023-01-03T17:08:18.463Z,10.89
2023-01-03T17:09:53.268Z,10.86
2023-01-03T17:11:27.646Z,10.81
2023-01-03T17:13:10.134Z,10.77
2023-01-03T17:15:11.479Z,10.72
2023-01-03T17:16:45.582Z,10.64
2023-01-03T17:18:20.916Z,10.55
2023-01-03T17:20:09.999Z,10.48
2023-01-03T17:21:51.070Z,10.41
2023-01-03T17:23:25.602Z,10.38
2023-01-03T17:25:01.800Z,10.34
2023-01-03T17:26:37.073Z,10.29
2023-01-03T17:28:12.181Z,10.28
2023-01-03T17:29:45.989Z,10.21
2023-01-03T17:31:24.542Z,10.18
2023-01-03T17:32:58.296Z,10.13
2023-01-03T17:34:33.596Z,10.14
2023-01-03T17:36:12.365Z,10.12
2023-01-03T17:38:23.357Z,10.02
2023-01-03T17:39:40.988Z,10.03
2023-01-03T17:41:18.905Z,9.99
2023-01-03T17:42:55.079Z,9.97
2023-01-03T17:44:29.897Z,9.94
2023-01-03T17:46:24.002Z,9.92
2023-01-03T17:48:15.121Z,9.91
2023-01-03T17:49:48.489Z,9.81
2023-01-03T17:51:23.128Z,9.78
2023-01-03T17:52:56.982Z,9.68
2023-01-03T17:54:32.984Z,9.58
2023-01-03T17:56:06.921Z,9.52
2023-01-03T17:57:41.303Z,9.44
2023-01-03T17:59:15.075Z,9.35
2023-01-03T18:00:50.201Z,9.32
2023-01-03T18:02:26.115Z,9.25
2023-01-03T18:03:59.822Z,9.14
2023-01-03T18:05:33.292Z,9.11
2023-01-03T18:07:06.986Z,9.06
2023-01-03T18:08:42.316Z,8.91
2023-01-03T18:10:17.769Z,8.98
2023-01-03T18:11:51.284Z,8.91
2023-01-03T18:13:27.845Z,8.85
2023-01-03T18:15:01.265Z,8.79
2023-01-03T18:16:36.309Z,8.80
2023-01-03T18:18:15.906Z,8.76
2023-01-03T18:19:49.509Z,8.57
2023-01-03T18:21:25.524Z,8.62
2023-01-03T18:22:59.861Z,8.55
2023-01-03T18:24:33.245Z,8.52
2023-01-03T18:26:09.886Z,8.51
2023-01-03T18:27:50.533Z,8.47
2023-01-03T18:29:24.325Z,8.42
2023-01-03T18:31:01.550Z,8.37
2023-01-03T18:32:36.870Z,8.35
2023-01-03T18:34:11.505Z,8.29
2023-01-03T18:35:49.414Z,8.26
2023-01-03T18:37:31.168Z,8.23
2023-01-03T18:39:08.594Z,8.24
2023-01-03T18:40:43.162Z,8.21
2023-01-03T18:42:34.073Z,8.10
2023-01-03T18:44:08.018Z,8.19
2023-01-03T18:45:44.089Z,8.13
2023-01-03T18:47:17.979Z,8.11
2023-01-03T18:48:53.282Z,8.08
2023-01-03T18:50:31.203Z,8.10
2023-01-03T18:52:05.342Z,8.10
2023-01-03T18:53:42.304Z,8.10
2023-01-03T18:55:21.843Z,8.09
2023-01-03T18:56:57.297Z,8.00
2023-01-03T18:58:38.951Z,7.96
2023-01-03T19:00:18.999Z,7.97
2023-01-03T19:01:53.552Z,7.98
2023-01-03T19:03:32.169Z,7.95
2023-01-03T19:05:07.844Z,7.93
2023-01-03T19:06:45.799Z,7.86
2023-01-03T19:08:24.018Z,7.77
2023-01-03T19:09:58.658Z,7.73
2023-01-03T19:11:37.177Z,7.64
2023-01-03T19:13:26.149Z,7.48
2023-01-03T19:14:59.833Z,7.38
2023-01-03T19:16:37.013Z,7.43
2023-01-03T19:18:11.694Z,7.44
2023-01-03T19:19:45.531Z,7.45
2023-01-03T19:21:22.588Z,7.43
2023-01-03T19:22:57.749Z,7.36
2023-01-03T19:24:39.194Z,7.29
2023-01-03T19:26:26.853Z,7.24
2023-01-03T19:28:03.447Z,7.28
2023-01-03T19:29:39.172Z,7.21
2023-01-03T19:31:13.401Z,7.24
2023-01-03T19:32:51.781Z,7.21
2023-01-03T19:34:26.923Z,7.19
2023-01-03T19:36:00.407Z,7.17
2023-01-03T19:37:35.202Z,7.16
2023-01-03T19:39:09.648Z,7.11
2023-01-03T19:40:45.442Z,7.07
2023-01-03T19:42:39.688Z,7.09
2023-01-03T19:44:13.445Z,7.08
2023-01-03T19:45:47.435Z,7.08
2023-01-03T19:47:21.305Z,7.05
2023-01-03T19:48:54.515Z,7.03
2023-01-03T19:50:30.873Z,6.96
2023-01-03T19:52:04.457Z,6.95
2023-01-03T19:53:39.495Z,6.90
2023-01-03T19:55:13.154Z,6.84
2023-01-03T19:56:48.609Z,6.76
2023-01-03T19:58:25.915Z,6.64
2023-01-03T20:00:03.883Z,6.56
2023-01-03T20:02:22.369Z,6.56
2023-01-03T20:03:39.764Z,6.44
2023-01-03T20:05:18.717Z,6.36
2023-01-03T20:06:52.815Z,6.38
2023-01-03T20:08:26.308Z,6.38
2023-01-03T20:10:01.302Z,6.33
2023-01-03T20:11:35.043Z,6.33
2023-01-03T20:13:08.597Z,6.31
2023-01-03T20:14:44.169Z,6.31
2023-01-03T20:16:19.015Z,6.30
2023-01-03T20:17:54.172Z,6.27
2023-01-03T20:19:27.904Z,6.19
2023-01-03T20:21:05.469Z,6.22
2023-01-03T20:23:04.611Z,6.23
2023-01-03T20:24:56.671Z,6.16
2023-01-03T20:26:36.793Z,6.18
2023-01-03T20:28:18.382Z,6.21
2023-01-03T20:29:54.809Z,6.18
2023-01-03T20:31:31.665Z,6.20
2023-01-03T20:33:05.721Z,6.19
2023-01-03T20:34:39.317Z,6.18
2023-01-03T20:36:22.715Z,6.19
2023-01-03T20:37:59.431Z,6.16
2023-01-03T20:39:36.853Z,6.18
2023-01-03T20:41:13.517Z,6.13
2023-01-03T20:42:48.905Z,6.04
2023-01-03T20:44:22.097Z,6.07
2023-01-03T20:45:58.517Z,6.02
2023-01-03T20:47:31.849Z,5.92
2023-01-03T20:49:06.531Z,5.87
2023-01-03T20:50:39.911Z,5.84
2023-01-03T20:52:16.624Z,5.84
2023-01-03T20:53:54.716Z,5.81
2023-01-03T20:55:29.982Z,5.74
2023-01-03T20:57:03.167Z,5.70
2023-01-03T20:58:38.013Z,5.66
2023-01-03T21:00:25.266Z,5.62
2023-01-03T21:01:58.746Z,5.57
2023-01-03T21:03:32.158Z,5.52
2023-01-03T21:05:06.183Z,5.55
2023-01-03T21:06:41.754Z,5.58
2023-01-03T21:08:35.296Z,5.52
2023-01-03T21:10:20.180Z,5.57
2023-01-03T21:11:53.392Z,5.58
2023-01-03T21:13:26.553Z,5.62
2023-01-03T21:15:01.119Z,5.59
2023-01-03T21:16:36.727Z,5.64
2023-01-03T21:18:11.352Z,5.62
2023-01-03T21:19:44.521Z,5.67
2023-01-03T21:21:20.409Z,5.68
2023-01-03T21:22:53.863Z,5.66
2023-01-03T21:24:27.078Z,5.64
2023-01-03T21:25:59.203Z,5.60
2023-01-03T21:27:32.260Z,5.45
2023-01-03T21:29:06.030Z,5.27
2023-01-03T21:30:41.856Z,5.27
2023-01-03T21:32:14.983Z,5.23
2023-01-03T21:33:48.430Z,5.21
2023-01-03T21:35:23.713Z,5.21
2023-01-03T21:36:57.465Z,5.22
2023-01-03T21:38:30.610Z,5.23
2023-01-03T21:40:04.013Z,5.22
2023-01-03T21:41:57.847Z,5.21
2023-01-03T21:43:30.119Z,5.19
2023-01-03T21:45:03.389Z,5.23
2023-01-03T21:46:37.921Z,5.22
2023-01-03T21:48:12.512Z,5.21
2023-01-03T21:49:45.799Z,5.20
2023-01-03T21:51:33.091Z,5.20
2023-01-03T21:53:06.825Z,5.19
2023-01-03T21:54:39.909Z,5.17
2023-01-03T21:56:20.664Z,5.11
2023-01-03T21:57:53.887Z,5.14
2023-01-03T21:59:27.262Z,5.12
2023-01-03T22:01:10.668Z,5.09
2023-01-03T22:03:03.724Z,5.02
2023-01-03T22:04:36.361Z,4.99
2023-01-03T22:06:11.550Z,4.97
2023-01-03T22:07:44.672Z,4.94
2023-01-03T22:09:31.790Z,4.88
2023-01-03T22:11:05.723Z,4.85
2023-01-03T22:12:38.866Z,4.84
2023-01-03T22:14:12.043Z,4.85
2023-01-03T22:15:45.388Z,4.81
2023-01-03T22:17:18.824Z,4.79
2023-01-03T22:18:53.873Z,4.78
2023-01-03T22:20:30.939Z,4.76
2023-01-03T22:22:08.183Z,4.76
2023-01-03T22:23:41.755Z,4.74
2023-01-03T22:25:16.799Z,4.70
2023-01-03T22:26:49.925Z,4.66
2023-01-03T22:28:25.470Z,4.67
2023-01-03T22:29:58.786Z,4.62
2023-01-03T22:31:32.014Z,4.54
2023-01-03T22:33:05.227Z,4.49
2023-01-03T22:34:40.658Z,4.46
2023-01-03T22:36:15.080Z,4.40
2023-01-03T22:37:48.296Z,4.38
2023-01-03T22:39:21.446Z,4.32
2023-01-03T22:40:54.798Z,4.27
2023-01-03T22:42:28.072Z,4.24
2023-01-03T22:44:00.242Z,4.23
2023-01-03T22:45:33.361Z,4.24
2023-01-03T22:47:06.816Z,4.22
2023-01-03T22:48:40.223Z,4.19
2023-01-03T22:50:14.879Z,4.15
2023-01-03T22:51:48.067Z,4.17
2023-01-03T22:53:21.353Z,4.17
2023-01-03T22:54:54.851Z,4.18
2023-01-03T22:56:28.070Z,4.18
2023-01-03T22:58:01.357Z,4.19
2023-01-03T22:59:34.708Z,4.17
2023-01-03T23:01:08.897Z,4.17
2023-01-03T23:02:42.544Z,4.16
2023-01-03T23:04:14.852Z,4.16
2023-01-03T23:05:49.540Z,4.16
2023-01-03T23:07:22.837Z,4.14
2023-01-03T23:08:56.531Z,4.07
2023-01-03T23:10:30.204Z,4.08
2023-01-03T23:12:20.509Z,4.01
2023-01-03T23:13:52.686Z,3.95
2023-01-03T23:15:26.135Z,3.89
2023-01-03T23:17:19.804Z,3.81
2023-01-03T23:18:52.088Z,3.70
2023-01-03T23:20:27.733Z,3.61
2023-01-03T23:22:02.380Z,3.57
2023-01-03T23:23:35.509Z,3.56
2023-01-03T23:25:09.329Z,3.52
2023-01-03T23:26:42.895Z,3.52
2023-01-03T23:28:16.465Z,3.59
2023-01-03T23:29:49.558Z,3.61
2023-01-03T23:31:23.122Z,3.62
2023-01-03T23:32:56.997Z,3.63
2023-01-03T23:34:29.283Z,3.63
2023-01-03T23:36:05.647Z,3.66
2023-01-03T23:37:40.480Z,3.68
2023-01-03T23:39:14.226Z,3.70
2023-01-03T23:40:47.429Z,3.74
2023-01-03T23:42:20.885Z,3.77
2023-01-03T23:43:55.212Z,3.79
2023-01-03T23:45:28.409Z,3.78
2023-01-03T23:47:06.231Z,3.80
2023-01-03T23:48:42.648Z,3.81
2023-01-03T23:50:15.981Z,3.78
2023-01-03T23:51:49.159Z,3.76
2023-01-03T23:53:23.691Z,3.74
2023-01-03T23:55:01.626Z,3.69
2023-01-03T23:56:38.808Z,3.62
2023-01-03T23:58:12.072Z,3.61
2023-01-03T23:59:45.348Z,3.59
